sensor_id;sensor_type;location;lat;lon;timestamp;P1;durP1;ratioP1;P2;durP2;ratioP2
26335;SDS011;14047;50.936;4.654;2023-08-17T00:01:51;2.80;;;1.77;;
26335;SDS011;14047;50.936;4.654;2023-08-17T00:04:17;2.70;;;1.90;;
26335;SDS011;14047;50.936;4.654;2023-08-17T00:06:43;4.43;;;1.73;;
26335;SDS011;14047;50.936;4.654;2023-08-17T00:09:09;4.15;;;1.88;;
26335;SDS011;14047;50.936;4.654;2023-08-17T00:11:35;4.55;;;1.92;;
26335;SDS011;14047;50.936;4.654;2023-08-17T00:14:01;3.70;;;1.90;;
26335;SDS011;14047;50.936;4.654;2023-08-17T00:16:28;9.05;;;2.20;;
26335;SDS011;14047;50.936;4.654;2023-08-17T00:18:54;5.10;;;2.33;;
26335;SDS011;14047;50.936;4.654;2023-08-17T00:21:20;4.22;;;2.00;;
26335;SDS011;14047;50.936;4.654;2023-08-17T00:23:46;4.68;;;2.00;;
26335;SDS011;14047;50.936;4.654;2023-08-17T00:26:11;3.65;;;1.73;;
26335;SDS011;14047;50.936;4.654;2023-08-17T00:28:39;4.35;;;1.90;;
26335;SDS011;14047;50.936;4.654;2023-08-17T00:31:05;3.47;;;1.90;;
26335;SDS011;14047;50.936;4.654;2023-08-17T00:33:31;2.80;;;1.92;;
26335;SDS011;14047;50.936;4.654;2023-08-17T00:35:57;3.45;;;1.88;;
26335;SDS011;14047;50.936;4.654;2023-08-17T00:38:25;3.05;;;2.28;;
26335;SDS011;14047;50.936;4.654;2023-08-17T00:40:51;4.65;;;2.05;;
26335;SDS011;14047;50.936;4.654;2023-08-17T00:43:17;2.50;;;1.90;;
26335;SDS011;14047;50.936;4.654;2023-08-17T00:45:43;6.22;;;1.90;;
26335;SDS011;14047;50.936;4.654;2023-08-17T00:48:12;2.55;;;1.80;;
26335;SDS011;14047;50.936;4.654;2023-08-17T00:50:38;4.50;;;1.90;;
26335;SDS011;14047;50.936;4.654;2023-08-17T00:53:05;4.47;;;2.03;;
26335;SDS011;14047;50.936;4.654;2023-08-17T00:55:32;4.90;;;2.20;;
26335;SDS011;14047;50.936;4.654;2023-08-17T00:57:59;4.60;;;2.00;;
26335;SDS011;14047;50.936;4.654;2023-08-17T01:00:25;2.83;;;1.92;;
26335;SDS011;14047;50.936;4.654;2023-08-17T01:02:53;3.92;;;1.85;;
26335;SDS011;14047;50.936;4.654;2023-08-17T01:05:20;3.35;;;1.92;;
26335;SDS011;14047;50.936;4.654;2023-08-17T01:07:47;3.70;;;2.20;;
26335;SDS011;14047;50.936;4.654;2023-08-17T01:10:13;3.30;;;2.10;;
26335;SDS011;14047;50.936;4.654;2023-08-17T01:12:53;3.90;;;2.25;;
26335;SDS011;14047;50.936;4.654;2023-08-17T01:20:56;7.07;;;2.35;;
26335;SDS011;14047;50.936;4.654;2023-08-17T01:23:23;3.03;;;1.88;;
26335;SDS011;14047;50.936;4.654;2023-08-17T01:25:49;3.78;;;2.10;;
26335;SDS011;14047;50.936;4.654;2023-08-17T01:28:15;3.25;;;1.67;;
26335;SDS011;14047;50.936;4.654;2023-08-17T01:30:44;3.45;;;2.30;;
26335;SDS011;14047;50.936;4.654;2023-08-17T01:33:18;3.20;;;2.00;;
26335;SDS011;14047;50.936;4.654;2023-08-17T01:36:03;4.72;;;2.30;;
26335;SDS011;14047;50.936;4.654;2023-08-17T01:38:38;3.40;;;2.38;;
26335;SDS011;14047;50.936;4.654;2023-08-17T01:41:06;3.15;;;2.17;;
26335;SDS011;14047;50.936;4.654;2023-08-17T01:43:41;4.20;;;2.38;;
26335;SDS011;14047;50.936;4.654;2023-08-17T01:46:14;5.40;;;2.17;;
26335;SDS011;14047;50.936;4.654;2023-08-17T01:48:44;4.00;;;2.58;;
26335;SDS011;14047;50.936;4.654;2023-08-17T01:51:16;5.05;;;2.40;;
26335;SDS011;14047;50.936;4.654;2023-08-17T01:53:45;4.45;;;2.35;;
26335;SDS011;14047;50.936;4.654;2023-08-17T01:56:11;6.65;;;2.72;;
26335;SDS011;14047;50.936;4.654;2023-08-17T01:58:37;4.90;;;2.65;;
26335;SDS011;14047;50.936;4.654;2023-08-17T02:01:04;5.85;;;2.50;;
26335;SDS011;14047;50.936;4.654;2023-08-17T02:03:31;5.00;;;2.60;;
26335;SDS011;14047;50.936;4.654;2023-08-17T02:05:58;5.38;;;2.47;;
26335;SDS011;14047;50.936;4.654;2023-08-17T02:08:24;4.97;;;2.70;;
26335;SDS011;14047;50.936;4.654;2023-08-17T02:10:52;4.38;;;2.55;;
26335;SDS011;14047;50.936;4.654;2023-08-17T02:13:20;6.93;;;2.90;;
26335;SDS011;14047;50.936;4.654;2023-08-17T02:15:46;6.13;;;2.70;;
26335;SDS011;14047;50.936;4.654;2023-08-17T02:18:12;4.45;;;2.65;;
26335;SDS011;14047;50.936;4.654;2023-08-17T02:20:38;4.20;;;2.70;;
26335;SDS011;14047;50.936;4.654;2023-08-17T02:23:04;6.40;;;2.47;;
26335;SDS011;14047;50.936;4.654;2023-08-17T02:25:30;3.92;;;2.58;;
26335;SDS011;14047;50.936;4.654;2023-08-17T02:28:03;3.75;;;2.53;;
26335;SDS011;14047;50.936;4.654;2023-08-17T02:30:30;5.65;;;2.58;;
26335;SDS011;14047;50.936;4.654;2023-08-17T02:32:57;3.65;;;2.42;;
26335;SDS011;14047;50.936;4.654;2023-08-17T02:35:23;3.42;;;2.55;;
26335;SDS011;14047;50.936;4.654;2023-08-17T02:37:49;4.80;;;2.45;;
26335;SDS011;14047;50.936;4.654;2023-08-17T02:40:15;6.65;;;2.63;;
26335;SDS011;14047;50.936;4.654;2023-08-17T02:42:41;5.50;;;2.97;;
26335;SDS011;14047;50.936;4.654;2023-08-17T02:45:08;3.75;;;2.42;;
26335;SDS011;14047;50.936;4.654;2023-08-17T02:47:34;4.18;;;2.35;;
26335;SDS011;14047;50.936;4.654;2023-08-17T02:50:00;6.90;;;2.88;;
26335;SDS011;14047;50.936;4.654;2023-08-17T02:52:26;4.85;;;2.53;;
26335;SDS011;14047;50.936;4.654;2023-08-17T02:54:52;4.25;;;2.75;;
26335;SDS011;14047;50.936;4.654;2023-08-17T02:57:18;6.57;;;2.53;;
26335;SDS011;14047;50.936;4.654;2023-08-17T02:59:45;5.53;;;2.63;;
26335;SDS011;14047;50.936;4.654;2023-08-17T03:02:11;10.07;;;2.80;;
26335;SDS011;14047;50.936;4.654;2023-08-17T03:04:37;5.13;;;2.42;;
26335;SDS011;14047;50.936;4.654;2023-08-17T03:07:03;6.32;;;2.83;;
26335;SDS011;14047;50.936;4.654;2023-08-17T03:09:29;5.22;;;2.42;;
26335;SDS011;14047;50.936;4.654;2023-08-17T03:11:55;5.50;;;2.58;;
26335;SDS011;14047;50.936;4.654;2023-08-17T03:14:21;3.75;;;2.63;;
26335;SDS011;14047;50.936;4.654;2023-08-17T03:16:47;5.07;;;2.60;;
26335;SDS011;14047;50.936;4.654;2023-08-17T03:19:14;4.50;;;2.90;;
26335;SDS011;14047;50.936;4.654;2023-08-17T03:21:42;4.18;;;2.33;;
26335;SDS011;14047;50.936;4.654;2023-08-17T03:24:09;4.95;;;2.67;;
26335;SDS011;14047;50.936;4.654;2023-08-17T03:26:35;5.28;;;2.90;;
26335;SDS011;14047;50.936;4.654;2023-08-17T03:29:02;3.90;;;2.58;;
26335;SDS011;14047;50.936;4.654;2023-08-17T03:31:28;5.68;;;3.03;;
26335;SDS011;14047;50.936;4.654;2023-08-17T03:33:54;8.50;;;3.00;;
26335;SDS011;14047;50.936;4.654;2023-08-17T03:36:21;4.88;;;3.00;;
26335;SDS011;14047;50.936;4.654;2023-08-17T03:38:47;6.93;;;2.72;;
26335;SDS011;14047;50.936;4.654;2023-08-17T03:41:13;5.80;;;2.78;;
26335;SDS011;14047;50.936;4.654;2023-08-17T03:43:39;4.07;;;2.55;;
26335;SDS011;14047;50.936;4.654;2023-08-17T03:46:05;5.90;;;2.38;;
26335;SDS011;14047;50.936;4.654;2023-08-17T03:48:31;3.95;;;2.38;;
26335;SDS011;14047;50.936;4.654;2023-08-17T03:50:57;5.10;;;2.70;;
26335;SDS011;14047;50.936;4.654;2023-08-17T03:53:23;22.55;;;3.67;;
26335;SDS011;14047;50.936;4.654;2023-08-17T03:55:49;3.78;;;1.92;;
26335;SDS011;14047;50.936;4.654;2023-08-17T03:58:16;6.30;;;3.00;;
26335;SDS011;14047;50.936;4.654;2023-08-17T04:00:48;8.98;;;3.40;;
26335;SDS011;14047;50.936;4.654;2023-08-17T04:03:17;6.75;;;2.97;;
26335;SDS011;14047;50.936;4.654;2023-08-17T04:05:43;9.07;;;2.83;;
26335;SDS011;14047;50.936;4.654;2023-08-17T04:08:09;5.65;;;2.20;;
26335;SDS011;14047;50.936;4.654;2023-08-17T04:10:35;8.02;;;3.00;;
26335;SDS011;14047;50.936;4.654;2023-08-17T04:13:01;5.95;;;2.55;;
26335;SDS011;14047;50.936;4.654;2023-08-17T04:15:28;7.28;;;2.50;;
26335;SDS011;14047;50.936;4.654;2023-08-17T04:17:54;4.78;;;2.55;;
26335;SDS011;14047;50.936;4.654;2023-08-17T04:20:20;8.82;;;3.00;;
26335;SDS011;14047;50.936;4.654;2023-08-17T04:22:48;4.50;;;2.70;;
26335;SDS011;14047;50.936;4.654;2023-08-17T04:25:14;8.73;;;2.42;;
26335;SDS011;14047;50.936;4.654;2023-08-17T04:27:40;4.35;;;2.97;;
26335;SDS011;14047;50.936;4.654;2023-08-17T04:30:06;2.67;;;1.95;;
26335;SDS011;14047;50.936;4.654;2023-08-17T04:32:42;5.53;;;2.95;;
26335;SDS011;14047;50.936;4.654;2023-08-17T04:35:08;6.03;;;2.55;;
26335;SDS011;14047;50.936;4.654;2023-08-17T04:37:35;7.05;;;3.00;;
26335;SDS011;14047;50.936;4.654;2023-08-17T04:40:01;17.88;;;3.47;;
26335;SDS011;14047;50.936;4.654;2023-08-17T04:42:27;4.95;;;3.03;;
26335;SDS011;14047;50.936;4.654;2023-08-17T04:44:55;5.75;;;2.40;;
26335;SDS011;14047;50.936;4.654;2023-08-17T04:47:21;5.55;;;2.80;;
26335;SDS011;14047;50.936;4.654;2023-08-17T04:49:47;5.40;;;2.97;;
26335;SDS011;14047;50.936;4.654;2023-08-17T04:52:13;6.10;;;2.92;;
26335;SDS011;14047;50.936;4.654;2023-08-17T04:54:39;3.47;;;2.70;;
26335;SDS011;14047;50.936;4.654;2023-08-17T04:57:05;6.53;;;2.25;;
26335;SDS011;14047;50.936;4.654;2023-08-17T04:59:32;8.13;;;2.85;;
26335;SDS011;14047;50.936;4.654;2023-08-17T05:01:58;6.68;;;2.58;;
26335;SDS011;14047;50.936;4.654;2023-08-17T05:04:24;8.40;;;2.80;;
26335;SDS011;14047;50.936;4.654;2023-08-17T05:06:52;4.68;;;2.42;;
26335;SDS011;14047;50.936;4.654;2023-08-17T05:09:18;6.78;;;2.80;;
26335;SDS011;14047;50.936;4.654;2023-08-17T05:11:44;5.18;;;3.15;;
26335;SDS011;14047;50.936;4.654;2023-08-17T05:14:10;8.68;;;2.55;;
26335;SDS011;14047;50.936;4.654;2023-08-17T05:16:37;7.00;;;2.97;;
26335;SDS011;14047;50.936;4.654;2023-08-17T05:19:03;7.40;;;2.75;;
26335;SDS011;14047;50.936;4.654;2023-08-17T05:21:29;10.55;;;3.05;;
26335;SDS011;14047;50.936;4.654;2023-08-17T05:23:55;6.78;;;2.47;;
26335;SDS011;14047;50.936;4.654;2023-08-17T05:26:22;4.22;;;2.67;;
26335;SDS011;14047;50.936;4.654;2023-08-17T05:28:47;9.70;;;2.70;;
26335;SDS011;14047;50.936;4.654;2023-08-17T05:31:14;4.88;;;3.05;;
26335;SDS011;14047;50.936;4.654;2023-08-17T05:33:43;6.55;;;3.10;;
26335;SDS011;14047;50.936;4.654;2023-08-17T05:36:09;6.45;;;2.50;;
26335;SDS011;14047;50.936;4.654;2023-08-17T05:38:35;4.32;;;2.72;;
26335;SDS011;14047;50.936;4.654;2023-08-17T05:41:01;4.72;;;3.05;;
26335;SDS011;14047;50.936;4.654;2023-08-17T05:43:27;8.32;;;3.20;;
26335;SDS011;14047;50.936;4.654;2023-08-17T05:45:53;4.47;;;2.70;;
26335;SDS011;14047;50.936;4.654;2023-08-17T05:48:19;6.03;;;2.40;;
26335;SDS011;14047;50.936;4.654;2023-08-17T05:50:46;4.65;;;2.78;;
26335;SDS011;14047;50.936;4.654;2023-08-17T05:53:12;7.93;;;2.90;;
26335;SDS011;14047;50.936;4.654;2023-08-17T05:55:38;5.03;;;2.58;;
26335;SDS011;14047;50.936;4.654;2023-08-17T05:58:04;7.28;;;2.92;;
26335;SDS011;14047;50.936;4.654;2023-08-17T06:00:30;6.60;;;2.70;;
26335;SDS011;14047;50.936;4.654;2023-08-17T06:02:56;7.80;;;3.25;;
26335;SDS011;14047;50.936;4.654;2023-08-17T06:05:27;12.60;;;3.15;;
26335;SDS011;14047;50.936;4.654;2023-08-17T06:07:54;7.47;;;2.80;;
26335;SDS011;14047;50.936;4.654;2023-08-17T06:10:20;7.43;;;2.72;;
26335;SDS011;14047;50.936;4.654;2023-08-17T06:12:53;10.35;;;2.40;;
26335;SDS011;14047;50.936;4.654;2023-08-17T06:15:20;7.93;;;2.40;;
26335;SDS011;14047;50.936;4.654;2023-08-17T06:17:46;5.95;;;3.65;;
26335;SDS011;14047;50.936;4.654;2023-08-17T06:20:15;5.57;;;2.63;;
26335;SDS011;14047;50.936;4.654;2023-08-17T06:22:42;6.90;;;2.92;;
26335;SDS011;14047;50.936;4.654;2023-08-17T06:25:08;8.52;;;3.03;;
26335;SDS011;14047;50.936;4.654;2023-08-17T06:27:34;12.10;;;4.25;;
26335;SDS011;14047;50.936;4.654;2023-08-17T06:30:02;3.75;;;2.92;;
26335;SDS011;14047;50.936;4.654;2023-08-17T06:32:28;8.23;;;3.38;;
26335;SDS011;14047;50.936;4.654;2023-08-17T06:34:57;6.38;;;3.70;;
26335;SDS011;14047;50.936;4.654;2023-08-17T06:37:23;11.38;;;3.28;;
26335;SDS011;14047;50.936;4.654;2023-08-17T06:39:49;8.05;;;3.55;;
26335;SDS011;14047;50.936;4.654;2023-08-17T06:42:15;6.03;;;3.20;;
26335;SDS011;14047;50.936;4.654;2023-08-17T06:44:42;6.53;;;3.42;;
26335;SDS011;14047;50.936;4.654;2023-08-17T06:47:08;11.70;;;3.85;;
26335;SDS011;14047;50.936;4.654;2023-08-17T06:49:34;12.70;;;3.80;;
26335;SDS011;14047;50.936;4.654;2023-08-17T06:52:00;8.27;;;3.85;;
26335;SDS011;14047;50.936;4.654;2023-08-17T06:54:26;15.80;;;3.45;;
26335;SDS011;14047;50.936;4.654;2023-08-17T06:56:52;7.95;;;3.78;;
26335;SDS011;14047;50.936;4.654;2023-08-17T06:59:18;10.15;;;4.25;;
26335;SDS011;14047;50.936;4.654;2023-08-17T07:01:44;8.27;;;3.60;;
26335;SDS011;14047;50.936;4.654;2023-08-17T07:04:11;13.13;;;4.07;;
26335;SDS011;14047;50.936;4.654;2023-08-17T07:06:37;14.63;;;4.38;;
26335;SDS011;14047;50.936;4.654;2023-08-17T07:09:03;14.70;;;3.30;;
26335;SDS011;14047;50.936;4.654;2023-08-17T07:11:30;8.05;;;3.40;;
26335;SDS011;14047;50.936;4.654;2023-08-17T07:13:56;6.10;;;3.33;;
26335;SDS011;14047;50.936;4.654;2023-08-17T07:16:22;7.28;;;3.67;;
26335;SDS011;14047;50.936;4.654;2023-08-17T07:18:48;9.20;;;3.28;;
26335;SDS011;14047;50.936;4.654;2023-08-17T07:21:14;6.15;;;3.47;;
26335;SDS011;14047;50.936;4.654;2023-08-17T07:23:43;4.35;;;2.92;;
26335;SDS011;14047;50.936;4.654;2023-08-17T07:26:10;7.25;;;3.72;;
26335;SDS011;14047;50.936;4.654;2023-08-17T07:28:36;6.00;;;3.13;;
26335;SDS011;14047;50.936;4.654;2023-08-17T07:31:02;10.38;;;3.17;;
26335;SDS011;14047;50.936;4.654;2023-08-17T07:33:28;7.50;;;3.40;;
26335;SDS011;14047;50.936;4.654;2023-08-17T07:35:53;12.77;;;3.22;;
26335;SDS011;14047;50.936;4.654;2023-08-17T07:38:21;10.30;;;3.55;;
26335;SDS011;14047;50.936;4.654;2023-08-17T07:40:47;7.78;;;2.58;;
26335;SDS011;14047;50.936;4.654;2023-08-17T07:43:13;11.52;;;2.92;;
26335;SDS011;14047;50.936;4.654;2023-08-17T07:45:39;5.38;;;2.63;;
26335;SDS011;14047;50.936;4.654;2023-08-17T07:48:04;5.43;;;2.55;;
26335;SDS011;14047;50.936;4.654;2023-08-17T07:50:31;9.88;;;2.78;;
26335;SDS011;14047;50.936;4.654;2023-08-17T07:52:57;8.93;;;2.97;;
26335;SDS011;14047;50.936;4.654;2023-08-17T07:55:22;6.50;;;3.13;;
26335;SDS011;14047;50.936;4.654;2023-08-17T07:57:48;5.22;;;2.67;;
26335;SDS011;14047;50.936;4.654;2023-08-17T08:00:14;5.78;;;2.65;;
26335;SDS011;14047;50.936;4.654;2023-08-17T08:02:41;9.57;;;3.15;;
26335;SDS011;14047;50.936;4.654;2023-08-17T08:05:07;9.82;;;2.78;;
26335;SDS011;14047;50.936;4.654;2023-08-17T08:07:33;5.63;;;2.63;;
26335;SDS011;14047;50.936;4.654;2023-08-17T08:09:59;5.45;;;2.80;;
26335;SDS011;14047;50.936;4.654;2023-08-17T08:12:25;5.18;;;2.70;;
26335;SDS011;14047;50.936;4.654;2023-08-17T08:14:51;6.90;;;3.20;;
26335;SDS011;14047;50.936;4.654;2023-08-17T08:17:17;9.30;;;2.92;;
26335;SDS011;14047;50.936;4.654;2023-08-17T08:19:44;6.18;;;2.75;;
26335;SDS011;14047;50.936;4.654;2023-08-17T08:22:10;5.60;;;2.45;;
26335;SDS011;14047;50.936;4.654;2023-08-17T08:24:36;4.57;;;2.67;;
26335;SDS011;14047;50.936;4.654;2023-08-17T08:27:02;7.10;;;2.60;;
26335;SDS011;14047;50.936;4.654;2023-08-17T08:29:28;6.05;;;3.00;;
26335;SDS011;14047;50.936;4.654;2023-08-17T08:31:54;5.43;;;2.88;;
26335;SDS011;14047;50.936;4.654;2023-08-17T08:34:22;5.85;;;3.00;;
26335;SDS011;14047;50.936;4.654;2023-08-17T08:36:48;8.48;;;3.08;;
26335;SDS011;14047;50.936;4.654;2023-08-17T08:39:14;9.98;;;3.63;;
26335;SDS011;14047;50.936;4.654;2023-08-17T08:41:40;6.82;;;3.45;;
26335;SDS011;14047;50.936;4.654;2023-08-17T08:44:06;8.20;;;2.92;;
26335;SDS011;14047;50.936;4.654;2023-08-17T08:46:32;7.60;;;3.17;;
26335;SDS011;14047;50.936;4.654;2023-08-17T08:48:59;7.97;;;3.00;;
26335;SDS011;14047;50.936;4.654;2023-08-17T08:51:28;5.22;;;2.85;;
26335;SDS011;14047;50.936;4.654;2023-08-17T08:54:02;4.90;;;3.03;;
26335;SDS011;14047;50.936;4.654;2023-08-17T08:56:34;8.27;;;3.38;;
26335;SDS011;14047;50.936;4.654;2023-08-17T08:59:03;10.68;;;3.72;;
26335;SDS011;14047;50.936;4.654;2023-08-17T09:01:33;6.65;;;3.28;;
26335;SDS011;14047;50.936;4.654;2023-08-17T09:03:59;8.98;;;3.85;;
26335;SDS011;14047;50.936;4.654;2023-08-17T09:06:26;8.63;;;4.20;;
26335;SDS011;14047;50.936;4.654;2023-08-17T09:08:54;18.63;;;4.50;;
26335;SDS011;14047;50.936;4.654;2023-08-17T09:11:22;10.10;;;4.85;;
26335;SDS011;14047;50.936;4.654;2023-08-17T09:13:48;9.80;;;4.70;;
26335;SDS011;14047;50.936;4.654;2023-08-17T09:16:15;9.52;;;4.10;;
26335;SDS011;14047;50.936;4.654;2023-08-17T09:18:41;6.55;;;3.50;;
26335;SDS011;14047;50.936;4.654;2023-08-17T09:21:07;5.53;;;3.65;;
26335;SDS011;14047;50.936;4.654;2023-08-17T09:23:33;8.60;;;3.30;;
26335;SDS011;14047;50.936;4.654;2023-08-17T09:25:59;9.27;;;3.90;;
26335;SDS011;14047;50.936;4.654;2023-08-17T09:28:33;7.03;;;3.55;;
26335;SDS011;14047;50.936;4.654;2023-08-17T09:31:05;13.85;;;4.38;;
26335;SDS011;14047;50.936;4.654;2023-08-17T09:33:31;6.97;;;3.80;;
26335;SDS011;14047;50.936;4.654;2023-08-17T09:36:00;10.30;;;4.00;;
26335;SDS011;14047;50.936;4.654;2023-08-17T09:38:27;7.78;;;3.50;;
26335;SDS011;14047;50.936;4.654;2023-08-17T09:40:53;8.75;;;4.13;;
26335;SDS011;14047;50.936;4.654;2023-08-17T09:43:22;8.95;;;3.70;;
26335;SDS011;14047;50.936;4.654;2023-08-17T09:45:49;7.78;;;5.03;;
26335;SDS011;14047;50.936;4.654;2023-08-17T09:48:16;6.88;;;4.68;;
26335;SDS011;14047;50.936;4.654;2023-08-17T09:50:43;8.35;;;4.47;;
26335;SDS011;14047;50.936;4.654;2023-08-17T09:53:16;9.60;;;5.07;;
26335;SDS011;14047;50.936;4.654;2023-08-17T09:55:43;7.95;;;4.47;;
26335;SDS011;14047;50.936;4.654;2023-08-17T09:58:10;8.45;;;4.00;;
26335;SDS011;14047;50.936;4.654;2023-08-17T10:00:49;8.32;;;3.72;;
26335;SDS011;14047;50.936;4.654;2023-08-17T10:03:16;11.93;;;4.40;;
26335;SDS011;14047;50.936;4.654;2023-08-17T10:05:44;8.38;;;4.28;;
26335;SDS011;14047;50.936;4.654;2023-08-17T10:08:13;8.43;;;4.00;;
26335;SDS011;14047;50.936;4.654;2023-08-17T10:10:46;9.32;;;4.30;;
26335;SDS011;14047;50.936;4.654;2023-08-17T10:16:02;12.50;;;3.97;;
26335;SDS011;14047;50.936;4.654;2023-08-17T10:18:45;12.00;;;4.30;;
26335;SDS011;14047;50.936;4.654;2023-08-17T10:21:28;20.55;;;4.78;;
26335;SDS011;14047;50.936;4.654;2023-08-17T10:23:57;6.72;;;3.88;;
26335;SDS011;14047;50.936;4.654;2023-08-17T10:26:24;10.20;;;4.63;;
26335;SDS011;14047;50.936;4.654;2023-08-17T10:28:51;8.05;;;4.55;;
26335;SDS011;14047;50.936;4.654;2023-08-17T10:31:17;10.88;;;4.00;;
26335;SDS011;14047;50.936;4.654;2023-08-17T10:33:45;7.18;;;4.35;;
26335;SDS011;14047;50.936;4.654;2023-08-17T10:36:15;8.70;;;4.30;;
26335;SDS011;14047;50.936;4.654;2023-08-17T10:38:41;9.18;;;4.50;;
26335;SDS011;14047;50.936;4.654;2023-08-17T10:41:08;7.57;;;4.63;;
26335;SDS011;14047;50.936;4.654;2023-08-17T10:43:55;10.15;;;4.30;;
26335;SDS011;14047;50.936;4.654;2023-08-17T10:46:32;9.48;;;4.57;;
26335;SDS011;14047;50.936;4.654;2023-08-17T10:49:08;13.88;;;4.85;;
26335;SDS011;14047;50.936;4.654;2023-08-17T10:51:59;18.52;;;5.80;;
26335;SDS011;14047;50.936;4.654;2023-08-17T10:54:38;7.68;;;4.75;;
26335;SDS011;14047;50.936;4.654;2023-08-17T10:57:43;12.32;;;4.60;;
26335;SDS011;14047;50.936;4.654;2023-08-17T11:03:03;10.32;;;5.25;;
26335;SDS011;14047;50.936;4.654;2023-08-17T11:05:40;9.48;;;5.70;;
26335;SDS011;14047;50.936;4.654;2023-08-17T11:08:29;10.30;;;5.97;;
26335;SDS011;14047;50.936;4.654;2023-08-17T11:13:31;13.38;;;6.10;;
26335;SDS011;14047;50.936;4.654;2023-08-17T11:15:59;15.48;;;6.68;;
26335;SDS011;14047;50.936;4.654;2023-08-17T11:18:26;9.05;;;6.32;;
26335;SDS011;14047;50.936;4.654;2023-08-17T11:20:53;12.73;;;6.47;;
26335;SDS011;14047;50.936;4.654;2023-08-17T11:23:20;15.85;;;7.05;;
26335;SDS011;14047;50.936;4.654;2023-08-17T11:25:47;17.95;;;7.22;;
26335;SDS011;14047;50.936;4.654;2023-08-17T11:28:14;10.20;;;6.45;;
26335;SDS011;14047;50.936;4.654;2023-08-17T11:30:40;11.77;;;6.65;;
26335;SDS011;14047;50.936;4.654;2023-08-17T11:33:07;11.07;;;7.00;;
26335;SDS011;14047;50.936;4.654;2023-08-17T11:35:35;12.90;;;7.25;;
26335;SDS011;14047;50.936;4.654;2023-08-17T11:38:01;10.70;;;7.07;;
26335;SDS011;14047;50.936;4.654;2023-08-17T11:40:31;12.70;;;7.43;;
26335;SDS011;14047;50.936;4.654;2023-08-17T11:42:58;15.25;;;7.63;;
26335;SDS011;14047;50.936;4.654;2023-08-17T11:45:24;10.40;;;7.18;;
26335;SDS011;14047;50.936;4.654;2023-08-17T11:47:50;11.38;;;7.57;;
26335;SDS011;14047;50.936;4.654;2023-08-17T11:50:19;10.50;;;7.32;;
26335;SDS011;14047;50.936;4.654;2023-08-17T11:52:45;17.23;;;8.52;;
26335;SDS011;14047;50.936;4.654;2023-08-17T11:55:13;14.02;;;8.30;;
26335;SDS011;14047;50.936;4.654;2023-08-17T11:57:43;16.90;;;9.15;;
26335;SDS011;14047;50.936;4.654;2023-08-17T12:00:09;14.13;;;8.52;;
26335;SDS011;14047;50.936;4.654;2023-08-17T12:02:35;16.77;;;9.50;;
26335;SDS011;14047;50.936;4.654;2023-08-17T12:05:10;14.05;;;8.15;;
26335;SDS011;14047;50.936;4.654;2023-08-17T12:07:37;16.23;;;8.75;;
26335;SDS011;14047;50.936;4.654;2023-08-17T12:10:03;12.75;;;8.77;;
26335;SDS011;14047;50.936;4.654;2023-08-17T12:12:31;15.95;;;7.45;;
26335;SDS011;14047;50.936;4.654;2023-08-17T12:15:04;17.30;;;8.45;;
26335;SDS011;14047;50.936;4.654;2023-08-17T12:17:30;10.57;;;7.32;;
26335;SDS011;14047;50.936;4.654;2023-08-17T12:19:58;15.15;;;7.72;;
26335;SDS011;14047;50.936;4.654;2023-08-17T12:22:24;16.40;;;7.63;;
26335;SDS011;14047;50.936;4.654;2023-08-17T12:24:51;12.30;;;7.53;;
26335;SDS011;14047;50.936;4.654;2023-08-17T12:27:18;13.15;;;7.57;;
26335;SDS011;14047;50.936;4.654;2023-08-17T12:32:22;17.73;;;7.45;;
26335;SDS011;14047;50.936;4.654;2023-08-17T12:34:48;13.05;;;8.00;;
26335;SDS011;14047;50.936;4.654;2023-08-17T12:37:18;13.48;;;6.90;;
26335;SDS011;14047;50.936;4.654;2023-08-17T12:39:46;13.32;;;7.63;;
26335;SDS011;14047;50.936;4.654;2023-08-17T12:42:15;12.52;;;7.07;;
26335;SDS011;14047;50.936;4.654;2023-08-17T12:44:41;13.70;;;8.05;;
26335;SDS011;14047;50.936;4.654;2023-08-17T12:47:07;15.20;;;7.95;;
26335;SDS011;14047;50.936;4.654;2023-08-17T12:49:36;14.57;;;8.18;;
26335;SDS011;14047;50.936;4.654;2023-08-17T12:52:02;15.30;;;7.85;;
26335;SDS011;14047;50.936;4.654;2023-08-17T12:54:28;11.88;;;8.00;;
26335;SDS011;14047;50.936;4.654;2023-08-17T12:56:54;12.63;;;8.43;;
26335;SDS011;14047;50.936;4.654;2023-08-17T12:59:20;13.13;;;8.35;;
26335;SDS011;14047;50.936;4.654;2023-08-17T13:01:46;13.82;;;7.75;;
26335;SDS011;14047;50.936;4.654;2023-08-17T13:04:14;11.05;;;7.82;;
26335;SDS011;14047;50.936;4.654;2023-08-17T13:06:43;13.85;;;8.40;;
26335;SDS011;14047;50.936;4.654;2023-08-17T13:09:09;9.95;;;8.10;;
26335;SDS011;14047;50.936;4.654;2023-08-17T13:11:38;12.63;;;7.55;;
26335;SDS011;14047;50.936;4.654;2023-08-17T13:14:04;13.52;;;8.70;;
26335;SDS011;14047;50.936;4.654;2023-08-17T13:16:30;9.80;;;8.05;;
26335;SDS011;14047;50.936;4.654;2023-08-17T13:18:56;11.43;;;8.57;;
26335;SDS011;14047;50.936;4.654;2023-08-17T13:21:22;14.93;;;9.20;;
26335;SDS011;14047;50.936;4.654;2023-08-17T13:23:48;13.32;;;9.02;;
26335;SDS011;14047;50.936;4.654;2023-08-17T13:26:14;14.38;;;9.02;;
26335;SDS011;14047;50.936;4.654;2023-08-17T13:28:40;14.77;;;9.30;;
26335;SDS011;14047;50.936;4.654;2023-08-17T13:31:06;14.38;;;9.13;;
26335;SDS011;14047;50.936;4.654;2023-08-17T13:33:32;17.45;;;9.30;;
26335;SDS011;14047;50.936;4.654;2023-08-17T13:35:58;15.10;;;8.93;;
26335;SDS011;14047;50.936;4.654;2023-08-17T13:38:24;16.42;;;8.93;;
26335;SDS011;14047;50.936;4.654;2023-08-17T13:40:50;16.35;;;8.98;;
26335;SDS011;14047;50.936;4.654;2023-08-17T13:43:16;17.38;;;9.45;;
26335;SDS011;14047;50.936;4.654;2023-08-17T13:45:42;17.95;;;8.57;;
26335;SDS011;14047;50.936;4.654;2023-08-17T13:48:08;15.38;;;8.70;;
26335;SDS011;14047;50.936;4.654;2023-08-17T13:50:36;12.73;;;8.57;;
26335;SDS011;14047;50.936;4.654;2023-08-17T13:53:03;16.65;;;8.95;;
26335;SDS011;14047;50.936;4.654;2023-08-17T13:55:29;14.38;;;8.30;;
26335;SDS011;14047;50.936;4.654;2023-08-17T13:57:56;16.10;;;8.55;;
26335;SDS011;14047;50.936;4.654;2023-08-17T14:00:23;13.70;;;9.27;;
26335;SDS011;14047;50.936;4.654;2023-08-17T14:02:50;14.43;;;9.90;;
26335;SDS011;14047;50.936;4.654;2023-08-17T14:05:16;13.10;;;9.10;;
26335;SDS011;14047;50.936;4.654;2023-08-17T14:07:42;15.70;;;9.40;;
26335;SDS011;14047;50.936;4.654;2023-08-17T14:10:08;14.35;;;8.40;;
26335;SDS011;14047;50.936;4.654;2023-08-17T14:12:35;12.85;;;9.05;;
26335;SDS011;14047;50.936;4.654;2023-08-17T14:15:01;15.50;;;8.77;;
26335;SDS011;14047;50.936;4.654;2023-08-17T14:17:29;16.10;;;8.95;;
26335;SDS011;14047;50.936;4.654;2023-08-17T14:19:55;11.93;;;9.00;;
26335;SDS011;14047;50.936;4.654;2023-08-17T14:22:21;14.25;;;9.07;;
26335;SDS011;14047;50.936;4.654;2023-08-17T14:24:47;14.95;;;8.98;;
26335;SDS011;14047;50.936;4.654;2023-08-17T14:27:13;13.18;;;8.85;;
26335;SDS011;14047;50.936;4.654;2023-08-17T14:29:39;13.50;;;9.25;;
26335;SDS011;14047;50.936;4.654;2023-08-17T14:32:04;16.63;;;10.38;;
26335;SDS011;14047;50.936;4.654;2023-08-17T14:34:31;12.50;;;9.55;;
26335;SDS011;14047;50.936;4.654;2023-08-17T14:36:56;13.07;;;8.82;;
26335;SDS011;14047;50.936;4.654;2023-08-17T14:39:22;12.65;;;9.73;;
26335;SDS011;14047;50.936;4.654;2023-08-17T14:41:48;13.63;;;9.75;;
26335;SDS011;14047;50.936;4.654;2023-08-17T14:44:14;15.30;;;9.40;;
26335;SDS011;14047;50.936;4.654;2023-08-17T14:46:42;19.25;;;8.95;;
26335;SDS011;14047;50.936;4.654;2023-08-17T14:49:09;14.13;;;9.73;;
26335;SDS011;14047;50.936;4.654;2023-08-17T14:51:38;12.90;;;8.75;;
26335;SDS011;14047;50.936;4.654;2023-08-17T14:54:05;16.17;;;9.65;;
26335;SDS011;14047;50.936;4.654;2023-08-17T14:56:33;19.02;;;9.55;;
26335;SDS011;14047;50.936;4.654;2023-08-17T14:58:59;13.57;;;9.02;;
26335;SDS011;14047;50.936;4.654;2023-08-17T15:01:25;13.05;;;9.15;;